Rudytown, Pennsylvania
Current Conditions -  °F | °C
As of 3:56 PM on Monday 24 Nov 2014 (Local Time) from KCXY Reporting Station
Clear Clear  
Wind Chill: 69°   Ceiling: Unl
Heat Index: 69°   Visibility: 10mi
Dew Point: 52°   Wind: 16mph
Humidity: 54%   Direction: 180°S
Pressure: 29.57"   Gusts: 23mph
Location:  40.2034°N, 76.87°W
Report Text: KCXY 242056Z 18014G20KT 10SM CLR 21/11 A2957 RMK AO2 PK WND 22027/2001 SLP012 T02060111 53016
Loading
Personal Weather Stations






























Interactive Weather Map New forecast layout! Learn more

10-Day Weather Forecast

Advertisements
Track Severe Weather on mobile